sensor_id;sensor_type;location;lat;lon;timestamp;pressure;altitude;pressure_sealevel;temperature;humidity
16580;BME280;8402;51.466;6.806;2024-02-04T00:01:48;102037.78;;;11.77;100.00
16580;BME280;8402;51.466;6.806;2024-02-04T00:04:21;102038.94;;;11.71;100.00
16580;BME280;8402;51.466;6.806;2024-02-04T00:06:51;102029.72;;;11.72;100.00
16580;BME280;8402;51.466;6.806;2024-02-04T00:09:23;102021.03;;;11.70;100.00
16580;BME280;8402;51.466;6.806;2024-02-04T00:11:55;102010.75;;;11.67;100.00
16580;BME280;8402;51.466;6.806;2024-02-04T00:14:25;102017.78;;;11.68;100.00
16580;BME280;8402;51.466;6.806;2024-02-04T00:16:55;102020.00;;;11.66;100.00
16580;BME280;8402;51.466;6.806;2024-02-04T00:19:28;102010.50;;;11.64;100.00
16580;BME280;8402;51.466;6.806;2024-02-04T00:21:58;102007.78;;;11.64;100.00
16580;BME280;8402;51.466;6.806;2024-02-04T00:24:28;102003.44;;;11.63;100.00
16580;BME280;8402;51.466;6.806;2024-02-04T00:26:58;102008.59;;;11.64;100.00
16580;BME280;8402;51.466;6.806;2024-02-04T00:29:28;102009.69;;;11.63;100.00
16580;BME280;8402;51.466;6.806;2024-02-04T00:31:58;102018.94;;;11.62;100.00
16580;BME280;8402;51.466;6.806;2024-02-04T00:34:31;102014.31;;;11.63;100.00
16580;BME280;8402;51.466;6.806;2024-02-04T00:37:01;102018.94;;;11.62;100.00
16580;BME280;8402;51.466;6.806;2024-02-04T00:39:31;102011.91;;;11.61;100.00
16580;BME280;8402;51.466;6.806;2024-02-04T00:42:01;102010.78;;;11.62;100.00
16580;BME280;8402;51.466;6.806;2024-02-04T00:44:30;102006.97;;;11.63;100.00
16580;BME280;8402;51.466;6.806;2024-02-04T00:47:00;102008.59;;;11.64;100.00
16580;BME280;8402;51.466;6.806;2024-02-04T00:49:33;102012.13;;;11.65;100.00
16580;BME280;8402;51.466;6.806;2024-02-04T00:52:04;102016.22;;;11.62;100.00
16580;BME280;8402;51.466;6.806;2024-02-04T00:54:34;102011.59;;;11.63;100.00
16580;BME280;8402;51.466;6.806;2024-02-04T00:57:04;102011.91;;;11.61;100.00
16580;BME280;8402;51.466;6.806;2024-02-04T00:59:34;102010.28;;;11.60;100.00
16580;BME280;8402;51.466;6.806;2024-02-04T01:02:04;102010.78;;;11.62;100.00
16580;BME280;8402;51.466;6.806;2024-02-04T01:04:36;102019.53;;;11.59;100.00
16580;BME280;8402;51.466;6.806;2024-02-04T01:07:06;102007.84;;;11.58;100.00
16580;BME280;8402;51.466;6.806;2024-02-04T01:09:36;102014.66;;;11.56;100.00
16580;BME280;8402;51.466;6.806;2024-02-04T01:12:08;102013.84;;;11.55;100.00
16580;BME280;8402;51.466;6.806;2024-02-04T01:14:38;102003.78;;;11.56;100.00
16580;BME280;8402;51.466;6.806;2024-02-04T01:17:08;102009.22;;;11.56;100.00
16580;BME280;8402;51.466;6.806;2024-02-04T01:19:40;102010.03;;;11.56;100.00
16580;BME280;8402;51.466;6.806;2024-02-04T01:22:10;102019.00;;;11.57;100.00
16580;BME280;8402;51.466;6.806;2024-02-04T01:24:40;102009.78;;;11.58;100.00
16580;BME280;8402;51.466;6.806;2024-02-04T01:27:11;102016.28;;;11.57;100.00
16580;BME280;8402;51.466;6.806;2024-02-04T01:29:41;102010.84;;;11.57;100.00
16580;BME280;8402;51.466;6.806;2024-02-04T01:32:11;102009.22;;;11.56;100.00
16580;BME280;8402;51.466;6.806;2024-02-04T01:34:43;102008.66;;;11.59;100.00
16580;BME280;8402;51.466;6.806;2024-02-04T01:37:13;102017.34;;;11.61;100.00
16580;BME280;8402;51.466;6.806;2024-02-04T01:39:43;102011.59;;;11.63;100.00
16580;BME280;8402;51.466;6.806;2024-02-04T01:42:13;102012.41;;;11.63;100.00
16580;BME280;8402;51.466;6.806;2024-02-04T01:44:43;102013.50;;;11.62;100.00
16580;BME280;8402;51.466;6.806;2024-02-04T01:47:13;102011.31;;;11.64;100.00
16580;BME280;8402;51.466;6.806;2024-02-04T01:49:46;102007.78;;;11.64;100.00
16580;BME280;8402;51.466;6.806;2024-02-04T01:52:16;102012.94;;;11.65;100.00
16580;BME280;8402;51.466;6.806;2024-02-04T01:54:47;102009.69;;;11.63;100.00
16580;BME280;8402;51.466;6.806;2024-02-04T01:57:18;102003.16;;;11.64;100.00
16580;BME280;8402;51.466;6.806;2024-02-04T01:59:48;101992.56;;;11.63;100.00
16580;BME280;8402;51.466;6.806;2024-02-04T02:02:20;101989.63;;;11.59;100.00
16580;BME280;8402;51.466;6.806;2024-02-04T02:04:53;101994.53;;;11.57;100.00
16580;BME280;8402;51.466;6.806;2024-02-04T02:07:23;102001.63;;;11.58;100.00
16580;BME280;8402;51.466;6.806;2024-02-04T02:09:54;101995.13;;;11.54;100.00
16580;BME280;8402;51.466;6.806;2024-02-04T02:12:25;101996.19;;;11.58;100.00
16580;BME280;8402;51.466;6.806;2024-02-04T02:15:00;101999.97;;;11.57;100.00
16580;BME280;8402;51.466;6.806;2024-02-04T02:17:38;102004.34;;;11.58;100.00
16580;BME280;8402;51.466;6.806;2024-02-04T02:20:21;101999.97;;;11.57;100.00
16580;BME280;8402;51.466;6.806;2024-02-04T02:22:57;101986.91;;;11.59;100.00
16580;BME280;8402;51.466;6.806;2024-02-04T02:25:31;101995.06;;;11.59;100.00
16580;BME280;8402;51.466;6.806;2024-02-04T02:28:01;101995.59;;;11.61;100.00
16580;BME280;8402;51.466;6.806;2024-02-04T02:30:31;101993.97;;;11.60;100.00
16580;BME280;8402;51.466;6.806;2024-02-04T02:33:02;102000.44;;;11.64;100.00
16580;BME280;8402;51.466;6.806;2024-02-04T02:35:33;101994.44;;;11.67;100.00
16580;BME280;8402;51.466;6.806;2024-02-04T02:38:10;101993.31;;;11.68;100.00
16580;BME280;8402;51.466;6.806;2024-02-04T02:40:46;101999.28;;;11.70;100.00
16580;BME280;8402;51.466;6.806;2024-02-04T02:43:17;101999.28;;;11.70;100.00
16580;BME280;8402;51.466;6.806;2024-02-04T02:45:48;102006.78;;;11.78;100.00
16580;BME280;8402;51.466;6.806;2024-02-04T02:48:18;102002.19;;;11.79;100.00
16580;BME280;8402;51.466;6.806;2024-02-04T02:50:49;102004.63;;;11.80;100.00
16580;BME280;8402;51.466;6.806;2024-02-04T02:53:18;102000.81;;;11.81;100.00
16580;BME280;8402;51.466;6.806;2024-02-04T02:55:51;102001.13;;;11.75;100.00
16580;BME280;8402;51.466;6.806;2024-02-04T02:58:21;101992.66;;;11.76;100.00
16580;BME280;8402;51.466;6.806;2024-02-04T03:00:51;101992.66;;;11.76;100.00
16580;BME280;8402;51.466;6.806;2024-02-04T03:03:21;101992.66;;;11.76;100.00
16580;BME280;8402;51.466;6.806;2024-02-04T03:05:51;101979.59;;;11.78;100.00
16580;BME280;8402;51.466;6.806;2024-02-04T03:08:21;101981.22;;;11.79;100.00
16580;BME280;8402;51.466;6.806;2024-02-04T03:10:53;101983.94;;;11.79;100.00
16580;BME280;8402;51.466;6.806;2024-02-04T03:13:23;101983.38;;;11.82;100.00
16580;BME280;8402;51.466;6.806;2024-02-04T03:15:53;101986.66;;;11.79;100.00
16580;BME280;8402;51.466;6.806;2024-02-04T03:18:23;101995.38;;;11.81;100.00
16580;BME280;8402;51.466;6.806;2024-02-04T03:20:53;101982.28;;;11.83;100.00
16580;BME280;8402;51.466;6.806;2024-02-04T03:23:23;101975.22;;;11.82;100.00
16580;BME280;8402;51.466;6.806;2024-02-04T03:25:55;101976.59;;;11.80;100.00
16580;BME280;8402;51.466;6.806;2024-02-04T03:28:25;101968.16;;;11.81;100.00
16580;BME280;8402;51.466;6.806;2024-02-04T03:30:55;101978.25;;;11.81;100.00
16580;BME280;8402;51.466;6.806;2024-02-04T03:33:25;101957.84;;;11.78;100.00
16580;BME280;8402;51.466;6.806;2024-02-04T03:35:55;101959.47;;;11.79;100.00
16580;BME280;8402;51.466;6.806;2024-02-04T03:38:25;101957.84;;;11.78;100.00
16580;BME280;8402;51.466;6.806;2024-02-04T03:40:57;101956.19;;;11.82;100.00
16580;BME280;8402;51.466;6.806;2024-02-04T03:43:27;101946.94;;;11.83;100.00
16580;BME280;8402;51.466;6.806;2024-02-04T03:45:57;101948.28;;;11.86;100.00
16580;BME280;8402;51.466;6.806;2024-02-04T03:48:27;101959.97;;;11.87;100.00
16580;BME280;8402;51.466;6.806;2024-02-04T03:50:57;101959.97;;;11.87;100.00
16580;BME280;8402;51.466;6.806;2024-02-04T03:53:27;101955.59;;;11.85;100.00
16580;BME280;8402;51.466;6.806;2024-02-04T03:55:59;101955.88;;;11.84;100.00
16580;BME280;8402;51.466;6.806;2024-02-04T03:58:29;101964.59;;;11.86;100.00
16580;BME280;8402;51.466;6.806;2024-02-04T04:00:59;101952.66;;;11.82;100.00
16580;BME280;8402;51.466;6.806;2024-02-04T04:03:29;101942.88;;;11.81;100.00
16580;BME280;8402;51.466;6.806;2024-02-04T04:05:59;101957.28;;;11.81;100.00
16580;BME280;8402;51.466;6.806;2024-02-04T04:08:30;101950.78;;;11.77;100.00
16580;BME280;8402;51.466;6.806;2024-02-04T04:11:02;101948.34;;;11.76;100.00
16580;BME280;8402;51.466;6.806;2024-02-04T04:13:32;101954.09;;;11.74;100.00
16580;BME280;8402;51.466;6.806;2024-02-04T04:16:03;101946.50;;;11.71;100.00
16580;BME280;8402;51.466;6.806;2024-02-04T04:18:33;101942.72;;;11.72;100.00
16580;BME280;8402;51.466;6.806;2024-02-04T04:21:03;101953.00;;;11.75;100.00
16580;BME280;8402;51.466;6.806;2024-02-04T04:23:33;101953.59;;;11.72;100.00
16580;BME280;8402;51.466;6.806;2024-02-04T04:26:06;101963.66;;;11.72;100.00
16580;BME280;8402;51.466;6.806;2024-02-04T04:28:36;101970.13;;;11.76;100.00
16580;BME280;8402;51.466;6.806;2024-02-04T04:31:05;101982.38;;;11.73;100.00
16580;BME280;8402;51.466;6.806;2024-02-04T04:33:35;101987.81;;;11.73;100.00
16580;BME280;8402;51.466;6.806;2024-02-04T04:36:06;102001.94;;;11.75;100.00
16580;BME280;8402;51.466;6.806;2024-02-04T04:38:36;102001.94;;;11.75;100.00
16580;BME280;8402;51.466;6.806;2024-02-04T04:41:08;101999.19;;;11.80;100.00
16580;BME280;8402;51.466;6.806;2024-02-04T04:43:38;101988.81;;;11.82;100.00
16580;BME280;8402;51.466;6.806;2024-02-04T04:46:08;101985.50;;;11.85;100.00
16580;BME280;8402;51.466;6.806;2024-02-04T04:48:38;101978.44;;;11.84;100.00
16580;BME280;8402;51.466;6.806;2024-02-04T04:51:08;101976.84;;;11.83;100.00
16580;BME280;8402;51.466;6.806;2024-02-04T04:53:38;101965.97;;;11.83;100.00
16580;BME280;8402;51.466;6.806;2024-02-04T04:56:11;101963.25;;;11.83;100.00
16580;BME280;8402;51.466;6.806;2024-02-04T04:58:41;101970.59;;;11.83;100.00
16580;BME280;8402;51.466;6.806;2024-02-04T05:01:10;101955.38;;;11.82;100.00
16580;BME280;8402;51.466;6.806;2024-02-04T05:03:41;101950.75;;;11.82;100.00
16580;BME280;8402;51.466;6.806;2024-02-04T05:06:11;101955.69;;;11.80;100.00
16580;BME280;8402;51.466;6.806;2024-02-04T05:08:40;101944.81;;;11.80;100.00
16580;BME280;8402;51.466;6.806;2024-02-04T05:11:13;101958.44;;;11.75;100.00
16580;BME280;8402;51.466;6.806;2024-02-04T05:13:43;101967.09;;;11.77;100.00
16580;BME280;8402;51.466;6.806;2024-02-04T05:16:13;101963.56;;;11.77;100.00
16580;BME280;8402;51.466;6.806;2024-02-04T05:18:43;101968.50;;;11.75;100.00
16580;BME280;8402;51.466;6.806;2024-02-04T05:21:13;101964.66;;;11.76;100.00
16580;BME280;8402;51.466;6.806;2024-02-04T05:23:42;101961.97;;;11.76;100.00
16580;BME280;8402;51.466;6.806;2024-02-04T05:26:17;101967.63;;;11.79;100.00
16580;BME280;8402;51.466;6.806;2024-02-04T05:28:47;101952.97;;;11.80;100.00
16580;BME280;8402;51.466;6.806;2024-02-04T05:31:17;101951.06;;;11.81;100.00
16580;BME280;8402;51.466;6.806;2024-02-04T05:33:46;101931.22;;;11.80;100.00
16580;BME280;8402;51.466;6.806;2024-02-04T05:36:17;101944.81;;;11.80;100.00
16580;BME280;8402;51.466;6.806;2024-02-04T05:38:47;101945.31;;;11.82;100.00
16580;BME280;8402;51.466;6.806;2024-02-04T05:41:19;101944.44;;;11.87;100.00
16580;BME280;8402;51.466;6.806;2024-02-04T05:43:49;101937.09;;;11.88;100.00
16580;BME280;8402;51.466;6.806;2024-02-04T05:46:19;101932.97;;;11.90;100.00
16580;BME280;8402;51.466;6.806;2024-02-04T05:48:49;101926.72;;;11.90;100.00
16580;BME280;8402;51.466;6.806;2024-02-04T05:51:19;101932.66;;;11.92;100.00
16580;BME280;8402;51.466;6.806;2024-02-04T05:53:49;101935.94;;;11.94;100.00
16580;BME280;8402;51.466;6.806;2024-02-04T05:56:22;101913.63;;;11.92;100.00
16580;BME280;8402;51.466;6.806;2024-02-04T05:58:51;101907.97;;;11.88;100.00
16580;BME280;8402;51.466;6.806;2024-02-04T06:01:21;101903.34;;;11.89;100.00
16580;BME280;8402;51.466;6.806;2024-02-04T06:03:51;101909.34;;;11.85;100.00
16580;BME280;8402;51.466;6.806;2024-02-04T06:06:21;101914.81;;;11.85;100.00
16580;BME280;8402;51.466;6.806;2024-02-04T06:08:51;101923.25;;;11.84;100.00
16580;BME280;8402;51.466;6.806;2024-02-04T06:11:24;101927.88;;;11.83;100.00
16580;BME280;8402;51.466;6.806;2024-02-04T06:13:54;101920.84;;;11.82;100.00
16580;BME280;8402;51.466;6.806;2024-02-04T06:16:24;101921.13;;;11.81;100.00
16580;BME280;8402;51.466;6.806;2024-02-04T06:18:54;101921.41;;;11.79;100.00
16580;BME280;8402;51.466;6.806;2024-02-04T06:21:25;101921.41;;;11.79;100.00
16580;BME280;8402;51.466;6.806;2024-02-04T06:23:55;101926.28;;;11.82;100.00
16580;BME280;8402;51.466;6.806;2024-02-04T06:26:27;101920.59;;;11.79;100.00
16580;BME280;8402;51.466;6.806;2024-02-04T06:28:57;101904.00;;;11.80;100.00
16580;BME280;8402;51.466;6.806;2024-02-04T06:31:27;101905.09;;;11.79;100.00
16580;BME280;8402;51.466;6.806;2024-02-04T06:33:57;101910.53;;;11.79;100.00
16580;BME280;8402;51.466;6.806;2024-02-04T06:36:28;101914.31;;;11.78;100.00
16580;BME280;8402;51.466;6.806;2024-02-04T06:38:58;101918.50;;;11.71;100.00
16580;BME280;8402;51.466;6.806;2024-02-04T06:41:30;101914.94;;;11.75;100.00
16580;BME280;8402;51.466;6.806;2024-02-04T06:44:02;101915.97;;;11.79;100.00
16580;BME280;8402;51.466;6.806;2024-02-04T06:46:32;101897.47;;;11.81;100.00
16580;BME280;8402;51.466;6.806;2024-02-04T06:49:02;101887.09;;;11.83;100.00
16580;BME280;8402;51.466;6.806;2024-02-04T06:51:32;101884.38;;;11.83;100.00
16580;BME280;8402;51.466;6.806;2024-02-04T06:54:02;101884.38;;;11.83;100.00
16580;BME280;8402;51.466;6.806;2024-02-04T06:56:34;101887.13;;;11.78;100.00
16580;BME280;8402;51.466;6.806;2024-02-04T06:59:04;101896.41;;;11.77;100.00
16580;BME280;8402;51.466;6.806;2024-02-04T07:01:34;101895.38;;;11.73;100.00
16580;BME280;8402;51.466;6.806;2024-02-04T07:04:04;101893.47;;;11.74;100.00
16580;BME280;8402;51.466;6.806;2024-02-04T07:06:34;101895.09;;;11.75;100.00
16580;BME280;8402;51.466;6.806;2024-02-04T07:09:04;101883.69;;;11.73;100.00
16580;BME280;8402;51.466;6.806;2024-02-04T07:11:36;101892.66;;;11.73;100.00
16580;BME280;8402;51.466;6.806;2024-02-04T07:14:06;101891.56;;;11.74;100.00
16580;BME280;8402;51.466;6.806;2024-02-04T07:16:36;101891.25;;;11.76;100.00
16580;BME280;8402;51.466;6.806;2024-02-04T07:19:06;101883.09;;;11.76;100.00
16580;BME280;8402;51.466;6.806;2024-02-04T07:21:36;101897.00;;;11.74;100.00
16580;BME280;8402;51.466;6.806;2024-02-04T07:24:06;101920.97;;;11.72;100.00
16580;BME280;8402;51.466;6.806;2024-02-04T07:26:38;101917.69;;;11.70;100.00
16580;BME280;8402;51.466;6.806;2024-02-04T07:29:08;101907.72;;;11.66;100.00
16580;BME280;8402;51.466;6.806;2024-02-04T07:31:38;101906.56;;;11.72;100.00
16580;BME280;8402;51.466;6.806;2024-02-04T07:34:08;101908.44;;;11.71;100.00
16580;BME280;8402;51.466;6.806;2024-02-04T07:36:39;101913.97;;;11.66;100.00
16580;BME280;8402;51.466;6.806;2024-02-04T07:39:10;101904.72;;;11.67;100.00
16580;BME280;8402;51.466;6.806;2024-02-04T07:41:43;101910.09;;;11.72;100.00
16580;BME280;8402;51.466;6.806;2024-02-04T07:44:13;101905.72;;;11.71;100.00
16580;BME280;8402;51.466;6.806;2024-02-04T07:46:43;101914.31;;;11.78;100.00
16580;BME280;8402;51.466;6.806;2024-02-04T07:49:13;101900.22;;;11.76;100.00
16580;BME280;8402;51.466;6.806;2024-02-04T07:51:42;101899.66;;;11.79;100.00
16580;BME280;8402;51.466;6.806;2024-02-04T07:54:12;101907.28;;;11.77;100.00
16580;BME280;8402;51.466;6.806;2024-02-04T07:56:45;101916.53;;;11.76;100.00
16580;BME280;8402;51.466;6.806;2024-02-04T07:59:15;101925.28;;;11.73;100.00
16580;BME280;8402;51.466;6.806;2024-02-04T08:01:45;101912.25;;;11.70;100.00
16580;BME280;8402;51.466;6.806;2024-02-04T08:04:15;101911.91;;;11.58;100.00
16580;BME280;8402;51.466;6.806;2024-02-04T08:06:45;101908.81;;;11.65;100.00
16580;BME280;8402;51.466;6.806;2024-02-04T08:09:15;101918.34;;;11.62;100.00
16580;BME280;8402;51.466;6.806;2024-02-04T08:11:47;101906.97;;;11.60;100.00
16580;BME280;8402;51.466;6.806;2024-02-04T08:14:17;101905.94;;;11.56;100.00
16580;BME280;8402;51.466;6.806;2024-02-04T08:16:47;101909.41;;;11.62;100.00
16580;BME280;8402;51.466;6.806;2024-02-04T08:19:17;101912.34;;;11.65;100.00
16580;BME280;8402;51.466;6.806;2024-02-04T08:21:47;101907.44;;;11.67;100.00
16580;BME280;8402;51.466;6.806;2024-02-04T08:24:17;101913.88;;;11.71;100.00
16580;BME280;8402;51.466;6.806;2024-02-04T08:26:49;101913.31;;;11.74;100.00
16580;BME280;8402;51.466;6.806;2024-02-04T08:29:19;101901.31;;;11.75;100.00
16580;BME280;8402;51.466;6.806;2024-02-04T08:31:50;101899.66;;;11.79;100.00
16580;BME280;8402;51.466;6.806;2024-02-04T08:34:20;101895.25;;;11.83;100.00
16580;BME280;8402;51.466;6.806;2024-02-04T08:36:51;101894.69;;;11.87;100.00
16580;BME280;8402;51.466;6.806;2024-02-04T08:39:21;101901.44;;;11.89;100.00
16580;BME280;8402;51.466;6.806;2024-02-04T08:41:55;101894.69;;;11.87;100.00
16580;BME280;8402;51.466;6.806;2024-02-04T08:44:25;101894.69;;;11.87;100.00
16580;BME280;8402;51.466;6.806;2024-02-04T08:47:05;101894.69;;;11.87;100.00
16580;BME280;8402;51.466;6.806;2024-02-04T08:49:37;101894.69;;;11.87;100.00
16580;BME280;8402;51.466;6.806;2024-02-04T08:52:05;101887.59;;;11.85;100.00
16580;BME280;8402;51.466;6.806;2024-02-04T08:54:35;101891.97;;;11.87;100.00
16580;BME280;8402;51.466;6.806;2024-02-04T08:57:08;101881.34;;;11.85;100.00
16580;BME280;8402;51.466;6.806;2024-02-04T08:59:38;101895.75;;;11.85;100.00
16580;BME280;8402;51.466;6.806;2024-02-04T09:02:08;101889.00;;;11.83;100.00
16580;BME280;8402;51.466;6.806;2024-02-04T09:04:38;101892.56;;;11.78;100.00
16580;BME280;8402;51.466;6.806;2024-02-04T09:07:09;101884.28;;;11.70;100.00
16580;BME280;8402;51.466;6.806;2024-02-04T09:09:39;101884.50;;;11.73;100.00
16580;BME280;8402;51.466;6.806;2024-02-04T09:12:12;101876.25;;;11.78;100.00
16580;BME280;8402;51.466;6.806;2024-02-04T09:14:42;101892.03;;;11.81;100.00
16580;BME280;8402;51.466;6.806;2024-02-04T09:17:12;101896.66;;;11.81;100.00
16580;BME280;8402;51.466;6.806;2024-02-04T09:19:42;101895.25;;;11.83;100.00
16580;BME280;8402;51.466;6.806;2024-02-04T09:22:12;101887.69;;;11.80;100.00
16580;BME280;8402;51.466;6.806;2024-02-04T09:24:42;101894.22;;;11.79;100.00
16580;BME280;8402;51.466;6.806;2024-02-04T09:27:14;101886.31;;;11.78;100.00
16580;BME280;8402;51.466;6.806;2024-02-04T09:29:44;101892.03;;;11.81;100.00
16580;BME280;8402;51.466;6.806;2024-02-04T09:32:14;101887.03;;;11.89;100.00
16580;BME280;8402;51.466;6.806;2024-02-04T09:34:45;101889.69;;;11.94;100.00
16580;BME280;8402;51.466;6.806;2024-02-04T09:37:15;101894.53;;;11.97;100.00
16580;BME280;8402;51.466;6.806;2024-02-04T09:39:46;101894.75;;;12.00;100.00
16580;BME280;8402;51.466;6.806;2024-02-04T09:42:19;101893.41;;;11.98;100.00
16580;BME280;8402;51.466;6.806;2024-02-04T09:44:50;101908.63;;;11.99;100.00
16580;BME280;8402;51.466;6.806;2024-02-04T09:47:20;101898.34;;;11.96;100.00
16580;BME280;8402;51.466;6.806;2024-02-04T09:49:50;101909.00;;;11.92;100.00
16580;BME280;8402;51.466;6.806;2024-02-04T09:52:29;101911.44;;;11.94;100.00
16580;BME280;8402;51.466;6.806;2024-02-04T09:55:01;101912.44;;;11.98;100.00
16580;BME280;8402;51.466;6.806;2024-02-04T09:57:35;101906.56;;;11.91;100.00
16580;BME280;8402;51.466;6.806;2024-02-04T10:00:07;101906.28;;;11.92;100.00
16580;BME280;8402;51.466;6.806;2024-02-04T10:02:38;101903.84;;;11.91;100.00
16580;BME280;8402;51.466;6.806;2024-02-04T10:05:08;101894.09;;;11.90;100.00
16580;BME280;8402;51.466;6.806;2024-02-04T10:07:38;101904.38;;;11.93;100.00
16580;BME280;8402;51.466;6.806;2024-02-04T10:10:09;101920.69;;;11.93;100.00
16580;BME280;8402;51.466;6.806;2024-02-04T10:12:42;101909.00;;;11.92;100.00
16580;BME280;8402;51.466;6.806;2024-02-04T10:15:12;101902.97;;;11.95;100.00
16580;BME280;8402;51.466;6.806;2024-02-04T10:17:45;101905.09;;;11.98;100.00
16580;BME280;8402;51.466;6.806;2024-02-04T10:20:15;101901.22;;;12.04;100.00
16580;BME280;8402;51.466;6.806;2024-02-04T10:22:46;101914.50;;;12.06;100.00
16580;BME280;8402;51.466;6.806;2024-02-04T10:25:20;101906.88;;;12.08;100.00
16580;BME280;8402;51.466;6.806;2024-02-04T10:27:53;101906.50;;;12.15;100.00
16580;BME280;8402;51.466;6.806;2024-02-04T10:30:24;101913.19;;;12.22;100.00
16580;BME280;8402;51.466;6.806;2024-02-04T10:32:55;101911.16;;;12.28;100.00
16580;BME280;8402;51.466;6.806;2024-02-04T10:35:25;101921.25;;;12.27;100.00
16580;BME280;8402;51.466;6.806;2024-02-04T10:37:54;101923.97;;;12.27;100.00
16580;BME280;8402;51.466;6.806;2024-02-04T10:40:25;101907.44;;;12.24;100.00
16580;BME280;8402;51.466;6.806;2024-02-04T10:43:00;101905.09;;;12.17;100.00
16580;BME280;8402;51.466;6.806;2024-02-04T10:45:36;101922.34;;;12.26;100.00
16580;BME280;8402;51.466;6.806;2024-02-04T10:48:11;101910.97;;;12.24;100.00
16580;BME280;8402;51.466;6.806;2024-02-04T10:50:41;101908.97;;;12.30;100.00
16580;BME280;8402;51.466;6.806;2024-02-04T10:53:14;101913.63;;;12.29;100.00
16580;BME280;8402;51.466;6.806;2024-02-04T10:55:46;101915.00;;;12.27;100.00
16580;BME280;8402;51.466;6.806;2024-02-04T10:58:19;101919.22;;;12.19;100.00
16580;BME280;8402;51.466;6.806;2024-02-04T11:00:50;101927.28;;;12.24;100.00
16580;BME280;8402;51.466;6.806;2024-02-04T11:03:21;101921.03;;;12.24;100.00
16580;BME280;8402;51.466;6.806;2024-02-04T11:05:54;101913.25;;;12.17;100.00
16580;BME280;8402;51.466;6.806;2024-02-04T11:08:25;101913.75;;;12.19;100.00
16580;BME280;8402;51.466;6.806;2024-02-04T11:10:56;101907.22;;;12.20;100.00
16580;BME280;8402;51.466;6.806;2024-02-04T11:13:29;101906.88;;;12.08;100.00
16580;BME280;8402;51.466;6.806;2024-02-04T11:16:02;101905.97;;;12.12;100.00
16580;BME280;8402;51.466;6.806;2024-02-04T11:18:56;101893.97;;;12.13;100.00
16580;BME280;8402;51.466;6.806;2024-02-04T11:21:42;101885.75;;;12.19;100.00
16580;BME280;8402;51.466;6.806;2024-02-04T11:24:27;101884.44;;;12.16;100.00
16580;BME280;8402;51.466;6.806;2024-02-04T11:27:02;101870.47;;;12.23;100.00
16580;BME280;8402;51.466;6.806;2024-02-04T11:29:35;101869.03;;;12.25;100.00
16580;BME280;8402;51.466;6.806;2024-02-04T11:32:05;101867.84;;;12.31;100.00
16580;BME280;8402;51.466;6.806;2024-02-04T11:34:36;101858.81;;;12.36;100.00
16580;BME280;8402;51.466;6.806;2024-02-04T11:37:15;101858.41;;;12.43;100.00
16580;BME280;8402;51.466;6.806;2024-02-04T11:39:50;101857.50;;;12.47;100.00
16580;BME280;8402;51.466;6.806;2024-02-04T11:42:22;101850.94;;;12.48;100.00
16580;BME280;8402;51.466;6.806;2024-02-04T11:45:11;101844.19;;;12.46;100.00
16580;BME280;8402;51.466;6.806;2024-02-04T11:47:42;101840.88;;;12.49;100.00
16580;BME280;8402;51.466;6.806;2024-02-04T11:50:12;101839.66;;;12.41;100.00
16580;BME280;8402;51.466;6.806;2024-02-04T11:52:42;101836.13;;;12.40;100.00
16580;BME280;8402;51.466;6.806;2024-02-04T11:55:13;101836.81;;;12.32;100.00
16580;BME280;8402;51.466;6.806;2024-02-04T11:57:44;101824.31;;;12.31;100.00
16580;BME280;8402;51.466;6.806;2024-02-04T12:00:18;101822.69;;;12.30;100.00
16580;BME280;8402;51.466;6.806;2024-02-04T12:03:00;101809.97;;;12.26;100.00
16580;BME280;8402;51.466;6.806;2024-02-04T12:05:32;101815.03;;;12.32;100.00
16580;BME280;8402;51.466;6.806;2024-02-04T12:08:05;101803.75;;;12.39;100.00
16580;BME280;8402;51.466;6.806;2024-02-04T12:10:35;101808.41;;;12.38;100.00
16580;BME280;8402;51.466;6.806;2024-02-04T12:13:06;101815.16;;;12.41;100.00
16580;BME280;8402;51.466;6.806;2024-02-04T12:15:40;101811.13;;;12.38;100.00
16580;BME280;8402;51.466;6.806;2024-02-04T12:18:11;101809.41;;;12.43;100.00
16580;BME280;8402;51.466;6.806;2024-02-04T12:20:42;101811.03;;;12.44;100.00
16580;BME280;8402;51.466;6.806;2024-02-04T12:23:12;101801.75;;;12.45;100.00
16580;BME280;8402;51.466;6.806;2024-02-04T12:25:42;101789.75;;;12.46;100.00
16580;BME280;8402;51.466;6.806;2024-02-04T12:28:14;101793.06;;;12.43;100.00
16580;BME280;8402;51.466;6.806;2024-02-04T12:30:55;101795.09;;;12.37;100.00
16580;BME280;8402;51.466;6.806;2024-02-04T12:33:25;101789.25;;;12.44;100.00
16580;BME280;8402;51.466;6.806;2024-02-04T12:35:55;101784.31;;;12.46;100.00
16580;BME280;8402;51.466;6.806;2024-02-04T12:38:27;101786.53;;;12.44;100.00
16580;BME280;8402;51.466;6.806;2024-02-04T12:41:01;101790.88;;;12.45;100.00
16580;BME280;8402;51.466;6.806;2024-02-04T12:43:32;101787.03;;;12.46;100.00
16580;BME280;8402;51.466;6.806;2024-02-04T12:46:05;101783.00;;;12.43;100.00
16580;BME280;8402;51.466;6.806;2024-02-04T12:48:36;101789.25;;;12.44;100.00
16580;BME280;8402;51.466;6.806;2024-02-04T12:51:07;101792.78;;;12.44;100.00
16580;BME280;8402;51.466;6.806;2024-02-04T12:53:38;101800.16;;;12.44;100.00
16580;BME280;8402;51.466;6.806;2024-02-04T12:56:08;101788.22;;;12.39;100.00
16580;BME280;8402;51.466;6.806;2024-02-04T12:58:42;101777.97;;;12.36;100.00
16580;BME280;8402;51.466;6.806;2024-02-04T13:01:15;101764.25;;;12.42;100.00
16580;BME280;8402;51.466;6.806;2024-02-04T13:03:45;101769.69;;;12.42;100.00
16580;BME280;8402;51.466;6.806;2024-02-04T13:06:17;101767.50;;;12.44;100.00
16580;BME280;8402;51.466;6.806;2024-02-04T13:08:47;101753.34;;;12.42;100.00
16580;BME280;8402;51.466;6.806;2024-02-04T13:11:20;101758.63;;;12.52;100.00